createdAt,value
2023-05-14T00:00:46.085Z,98368.29
2023-05-14T00:02:06.450Z,98370.27
2023-05-14T00:03:12.972Z,98369.39
2023-05-14T00:04:20.481Z,98369.71
2023-05-14T00:05:26.592Z,98369.65
2023-05-14T00:06:32.356Z,98371.96
2023-05-14T00:07:37.750Z,98373.14
2023-05-14T00:08:46.465Z,98371.13
2023-05-14T00:09:51.794Z,98369.79
2023-05-14T00:10:57.221Z,98372.13
2023-05-14T00:12:02.680Z,98370.00
2023-05-14T00:13:08.394Z,98370.14
2023-05-14T00:14:16.920Z,98371.52
2023-05-14T00:15:22.856Z,98368.98
2023-05-14T00:16:28.858Z,98370.73
2023-05-14T00:17:34.755Z,98373.42
2023-05-14T00:18:40.981Z,98372.52
2023-05-14T00:19:47.570Z,98374.66
2023-05-14T00:20:55.162Z,98374.36
2023-05-14T00:22:01.034Z,98373.80
2023-05-14T00:23:06.735Z,98373.84
2023-05-14T00:24:12.563Z,98377.16
2023-05-14T00:25:18.555Z,98374.10
2023-05-14T00:26:24.991Z,98376.25
2023-05-14T00:27:31.470Z,98377.51
2023-05-14T00:28:37.521Z,98373.84
2023-05-14T00:29:43.520Z,98374.52
2023-05-14T00:30:49.382Z,98378.59
2023-05-14T00:31:55.157Z,98378.45
2023-05-14T00:33:01.914Z,98379.44
2023-05-14T00:34:08.144Z,98381.58
2023-05-14T00:35:14.208Z,98383.86
2023-05-14T00:36:20.502Z,98383.08
2023-05-14T00:37:26.752Z,98384.36
2023-05-14T00:38:32.222Z,98386.56
2023-05-14T00:39:38.083Z,98387.88
2023-05-14T00:40:46.375Z,98384.48
2023-05-14T00:41:52.326Z,98390.35
2023-05-14T00:42:58.367Z,98392.16
2023-05-14T00:44:05.339Z,98391.71
2023-05-14T00:45:12.201Z,98395.88
2023-05-14T00:46:17.773Z,98401.27
2023-05-14T00:47:24.038Z,98402.39
2023-05-14T00:48:30.207Z,98402.66
2023-05-14T00:49:35.996Z,98402.11
2023-05-14T00:50:42.164Z,98403.25
2023-05-14T00:51:48.637Z,98398.67
2023-05-14T00:52:54.971Z,98404.93
2023-05-14T00:54:00.807Z,98399.41
2023-05-14T00:55:07.368Z,98401.71
2023-05-14T00:56:13.307Z,98403.92
2023-05-14T00:57:22.325Z,98402.52
2023-05-14T00:58:28.805Z,98399.07
2023-05-14T00:59:34.264Z,98400.35
2023-05-14T01:00:41.322Z,98397.14
2023-05-14T01:01:47.543Z,98397.63
2023-05-14T01:02:53.875Z,98395.34
2023-05-14T01:03:59.295Z,98396.48
2023-05-14T01:05:05.584Z,98397.27
2023-05-14T01:06:27.537Z,98396.90
2023-05-14T01:07:58.859Z,98398.95
2023-05-14T01:09:13.659Z,98403.53
2023-05-14T01:10:47.311Z,98404.55
2023-05-14T01:12:06.059Z,98406.84
2023-05-14T01:13:34.836Z,98403.92
2023-05-14T01:14:55.732Z,98401.33
2023-05-14T01:16:01.696Z,98399.11
2023-05-14T01:17:07.845Z,98400.09
2023-05-14T01:18:15.720Z,98404.77
2023-05-14T01:19:43.193Z,98405.96
2023-05-14T01:20:51.580Z,98409.44
2023-05-14T01:21:57.415Z,98417.62
2023-05-14T01:23:03.671Z,98418.59
2023-05-14T01:24:10.267Z,98423.44
2023-05-14T01:25:15.954Z,98421.55
2023-05-14T01:26:22.333Z,98423.00
2023-05-14T01:28:07.444Z,98419.85
2023-05-14T01:29:18.768Z,98421.34
2023-05-14T01:30:56.169Z,98423.17
2023-05-14T01:32:02.057Z,98422.55
2023-05-14T01:33:11.739Z,98424.09
2023-05-14T01:34:18.055Z,98422.13
2023-05-14T01:35:25.141Z,98423.65
2023-05-14T01:36:30.793Z,98419.49
2023-05-14T01:37:36.273Z,98418.33
2023-05-14T01:38:46.293Z,98416.93
2023-05-14T01:39:52.834Z,98418.06
2023-05-14T01:40:58.390Z,98417.68
2023-05-14T01:42:04.695Z,98420.37
2023-05-14T01:43:10.926Z,98422.92
2023-05-14T01:44:16.638Z,98420.17
2023-05-14T01:45:22.453Z,98420.66
2023-05-14T01:46:32.096Z,98425.02
2023-05-14T01:47:37.861Z,98426.84
2023-05-14T01:48:43.279Z,98429.38
2023-05-14T01:49:48.691Z,98427.10
2023-05-14T01:50:55.354Z,98430.19
2023-05-14T01:52:01.937Z,98428.00
2023-05-14T01:53:08.477Z,98430.77
2023-05-14T01:54:14.811Z,98429.20
2023-05-14T01:55:20.882Z,98428.38
2023-05-14T01:56:27.677Z,98432.56
2023-05-14T01:57:33.416Z,98434.16
2023-05-14T01:58:39.893Z,98432.48
2023-05-14T01:59:46.299Z,98431.33
2023-05-14T02:00:52.144Z,98432.77
2023-05-14T02:01:58.058Z,98434.05
2023-05-14T02:03:04.625Z,98437.86
2023-05-14T02:04:10.915Z,98439.77
2023-05-14T02:05:20.785Z,98439.88
2023-05-14T02:06:26.698Z,98439.55
2023-05-14T02:07:34.171Z,98440.36
2023-05-14T02:08:40.309Z,98444.45
2023-05-14T02:09:46.959Z,98446.52
2023-05-14T02:10:53.302Z,98448.70
2023-05-14T02:11:59.664Z,98450.20
2023-05-14T02:13:06.040Z,98457.10
2023-05-14T02:14:12.344Z,98458.16
2023-05-14T02:15:18.187Z,98461.40
2023-05-14T02:16:24.202Z,98459.61
2023-05-14T02:17:30.311Z,98460.89
2023-05-14T02:18:36.039Z,98464.21
2023-05-14T02:19:42.272Z,98460.10
2023-05-14T02:20:48.194Z,98456.34
2023-05-14T02:21:54.057Z,98460.86
2023-05-14T02:22:59.895Z,98465.21
2023-05-14T02:24:05.536Z,98464.83
2023-05-14T02:25:12.123Z,98465.80
2023-05-14T02:26:18.045Z,98465.58
2023-05-14T02:27:23.881Z,98469.92
2023-05-14T02:28:29.712Z,98471.04
2023-05-14T02:29:35.177Z,98469.64
2023-05-14T02:30:40.778Z,98470.67
2023-05-14T02:31:46.786Z,98470.45
2023-05-14T02:32:52.336Z,98470.05
2023-05-14T02:33:59.163Z,98471.42
2023-05-14T02:35:04.994Z,98473.17
2023-05-14T02:36:10.770Z,98471.13
2023-05-14T02:37:16.584Z,98468.52
2023-05-14T02:38:22.720Z,98470.84
2023-05-14T02:39:28.411Z,98472.83
2023-05-14T02:40:33.821Z,98471.98
2023-05-14T02:41:39.851Z,98476.80
2023-05-14T02:42:45.600Z,98475.30
2023-05-14T02:43:51.437Z,98476.73
2023-05-14T02:44:57.268Z,98478.55
2023-05-14T02:46:03.235Z,98481.02
2023-05-14T02:47:09.732Z,98481.19
2023-05-14T02:48:16.048Z,98482.77
2023-05-14T02:49:22.409Z,98483.27
2023-05-14T02:50:28.164Z,98483.10
2023-05-14T02:51:33.680Z,98485.96
2023-05-14T02:52:40.237Z,98483.92
2023-05-14T02:53:46.888Z,98489.05
2023-05-14T02:54:53.134Z,98486.32
2023-05-14T02:55:59.712Z,98488.96
2023-05-14T02:57:06.379Z,98488.58
2023-05-14T02:58:12.725Z,98491.81
2023-05-14T02:59:19.055Z,98495.84
2023-05-14T03:00:26.157Z,98498.15
2023-05-14T03:01:32.230Z,98503.85
2023-05-14T03:02:38.581Z,98499.25
2023-05-14T03:03:47.908Z,98502.66
2023-05-14T03:04:53.953Z,98499.06
2023-05-14T03:05:59.519Z,98495.20
2023-05-14T03:07:08.129Z,98501.76
2023-05-14T03:08:13.736Z,98499.55
2023-05-14T03:09:18.882Z,98501.85
2023-05-14T03:10:24.686Z,98503.55
2023-05-14T03:11:33.500Z,98502.94
2023-05-14T03:12:38.834Z,98501.97
2023-05-14T03:13:44.407Z,98502.54
2023-05-14T03:14:50.769Z,98505.30
2023-05-14T03:15:57.700Z,98502.95
2023-05-14T03:17:04.681Z,98511.02
2023-05-14T03:18:11.396Z,98509.70
2023-05-14T03:19:17.838Z,98508.14
2023-05-14T03:20:26.332Z,98511.55
2023-05-14T03:21:32.665Z,98514.58
2023-05-14T03:22:38.592Z,98514.80
2023-05-14T03:23:44.542Z,98513.30
2023-05-14T03:24:50.700Z,98512.84
2023-05-14T03:25:57.458Z,98518.56
2023-05-14T03:27:03.695Z,98517.30
2023-05-14T03:28:10.481Z,98519.20
2023-05-14T03:29:18.426Z,98518.50
2023-05-14T03:30:24.632Z,98520.94
2023-05-14T03:31:30.259Z,98525.16
2023-05-14T03:32:36.251Z,98524.85
2023-05-14T03:33:42.366Z,98524.00
2023-05-14T03:34:47.928Z,98526.27
2023-05-14T03:35:53.629Z,98528.25
2023-05-14T03:37:00.402Z,98529.63
2023-05-14T03:38:06.760Z,98526.80
2023-05-14T03:39:16.104Z,98526.73
2023-05-14T03:40:22.170Z,98526.58
2023-05-14T03:41:28.661Z,98531.02
2023-05-14T03:42:34.648Z,98534.00
2023-05-14T03:43:41.725Z,98535.70
2023-05-14T03:44:47.053Z,98538.63
2023-05-14T03:45:53.282Z,98540.38
2023-05-14T03:46:59.315Z,98540.55
2023-05-14T03:48:05.872Z,98543.80
2023-05-14T03:49:12.146Z,98546.89
2023-05-14T03:50:18.830Z,98549.98
2023-05-14T03:51:25.411Z,98553.30
2023-05-14T03:52:30.667Z,98556.55
2023-05-14T03:53:36.265Z,98559.26
2023-05-14T03:54:42.160Z,98565.81
2023-05-14T03:55:47.742Z,98567.56
2023-05-14T03:56:55.398Z,98573.09
2023-05-14T03:58:01.210Z,98573.91
2023-05-14T03:59:06.720Z,98577.77
2023-05-14T04:00:13.365Z,98577.95
2023-05-14T04:01:22.040Z,98588.71
2023-05-14T04:02:28.730Z,98596.06
2023-05-14T04:03:35.635Z,98596.32
2023-05-14T04:04:42.981Z,98592.45
2023-05-14T04:05:49.662Z,98591.25
2023-05-14T04:06:56.012Z,98590.17
2023-05-14T04:08:02.093Z,98590.89
2023-05-14T04:09:08.409Z,98591.14
2023-05-14T04:10:15.181Z,98591.70
2023-05-14T04:11:21.757Z,98591.70
2023-05-14T04:12:27.904Z,98591.41
2023-05-14T04:13:34.145Z,98593.86
2023-05-14T04:14:39.796Z,98597.84
2023-05-14T04:15:46.155Z,98599.73
2023-05-14T04:16:52.206Z,98601.13
2023-05-14T04:17:58.552Z,98603.06
2023-05-14T04:19:06.453Z,98607.18
2023-05-14T04:20:12.940Z,98609.48
2023-05-14T04:21:19.010Z,98612.98
2023-05-14T04:22:25.533Z,98618.27
2023-05-14T04:23:32.142Z,98618.27
2023-05-14T04:24:37.584Z,98615.55
2023-05-14T04:25:43.263Z,98616.10
2023-05-14T04:26:49.015Z,98618.64
2023-05-14T04:27:55.034Z,98619.61
2023-05-14T04:29:03.693Z,98625.01
2023-05-14T04:30:10.916Z,98626.27
2023-05-14T04:31:17.388Z,98629.92
2023-05-14T04:32:24.023Z,98627.23
2023-05-14T04:33:29.735Z,98624.56
2023-05-14T04:34:35.635Z,98624.50
2023-05-14T04:35:41.890Z,98624.20
2023-05-14T04:36:47.721Z,98622.39
2023-05-14T04:37:53.660Z,98622.38
2023-05-14T04:38:59.283Z,98621.92
2023-05-14T04:40:07.382Z,98623.84
2023-05-14T04:41:13.626Z,98626.61
2023-05-14T04:42:20.214Z,98627.00
2023-05-14T04:43:26.504Z,98632.46
2023-05-14T04:44:32.114Z,98632.65
2023-05-14T04:45:38.111Z,98637.30
2023-05-14T04:46:43.896Z,98640.89
2023-05-14T04:47:49.208Z,98644.20
2023-05-14T04:48:54.528Z,98645.25
2023-05-14T04:50:00.440Z,98645.73
2023-05-14T04:51:07.182Z,98647.39
2023-05-14T04:52:13.540Z,98649.92
2023-05-14T04:53:19.262Z,98651.30
2023-05-14T04:54:25.282Z,98649.02
2023-05-14T04:55:31.102Z,98648.64
2023-05-14T04:56:36.553Z,98648.25
2023-05-14T04:57:42.652Z,98654.20
2023-05-14T04:58:48.078Z,98656.80
2023-05-14T04:59:54.125Z,98662.75
2023-05-14T05:01:00.813Z,98655.55
2023-05-14T05:02:07.114Z,98657.38
2023-05-14T05:03:13.328Z,98657.25
2023-05-14T05:04:19.773Z,98655.76
2023-05-14T05:05:26.518Z,98651.88
2023-05-14T05:06:32.352Z,98648.96
2023-05-14T05:07:38.018Z,98650.54
2023-05-14T05:08:43.447Z,98650.27
2023-05-14T05:09:48.757Z,98651.52
2023-05-14T05:10:54.959Z,98650.52
2023-05-14T05:12:02.182Z,98653.05
2023-05-14T05:13:08.434Z,98650.78
2023-05-14T05:14:14.712Z,98651.98
2023-05-14T05:15:20.932Z,98649.55
2023-05-14T05:16:27.467Z,98650.98
2023-05-14T05:17:33.481Z,98649.48
2023-05-14T05:18:39.923Z,98651.53
2023-05-14T05:19:46.227Z,98652.89
2023-05-14T05:20:52.008Z,98649.41
2023-05-14T05:21:57.464Z,98650.06
2023-05-14T05:23:03.087Z,98646.39
2023-05-14T05:24:09.570Z,98647.56
2023-05-14T05:25:14.830Z,98646.62
2023-05-14T05:26:20.887Z,98646.17
2023-05-14T05:27:27.194Z,98643.71
2023-05-14T05:28:32.884Z,98644.83
2023-05-14T05:29:38.867Z,98648.30
2023-05-14T05:30:45.668Z,98647.04
2023-05-14T05:31:51.439Z,98648.08
2023-05-14T05:32:58.280Z,98649.23
2023-05-14T05:34:04.505Z,98647.51
2023-05-14T05:35:11.002Z,98646.39
2023-05-14T05:36:17.009Z,98641.96
2023-05-14T05:37:23.249Z,98643.98
2023-05-14T05:38:28.808Z,98641.52
2023-05-14T05:39:35.454Z,98644.98
2023-05-14T05:40:41.600Z,98649.02
2023-05-14T05:41:47.452Z,98648.80
2023-05-14T05:42:52.813Z,98651.60
2023-05-14T05:43:58.421Z,98651.45
2023-05-14T05:45:04.476Z,98647.80
2023-05-14T05:46:10.570Z,98650.33
2023-05-14T05:47:17.763Z,98651.05
2023-05-14T05:48:23.529Z,98648.27
2023-05-14T05:49:29.277Z,98647.66
2023-05-14T05:50:35.332Z,98644.50
2023-05-14T05:51:41.569Z,98649.20
2023-05-14T05:52:47.010Z,98648.02
2023-05-14T05:53:53.682Z,98647.09
2023-05-14T05:54:59.917Z,98650.27
2023-05-14T05:56:07.209Z,98648.29
2023-05-14T05:57:13.169Z,98644.65
2023-05-14T05:58:20.238Z,98646.01
2023-05-14T05:59:26.315Z,98643.95
2023-05-14T06:00:32.134Z,98646.34
2023-05-14T06:01:38.381Z,98646.43
2023-05-14T06:02:46.914Z,98644.95
2023-05-14T06:03:52.330Z,98642.43
2023-05-14T06:04:58.021Z,98643.69
2023-05-14T06:06:06.577Z,98641.48
2023-05-14T06:07:14.976Z,98640.31
2023-05-14T06:08:23.369Z,98643.78
2023-05-14T06:09:28.810Z,98648.84
2023-05-14T06:10:35.622Z,98647.66
2023-05-14T06:11:41.219Z,98655.60
2023-05-14T06:12:47.164Z,98656.39
2023-05-14T06:13:52.721Z,98654.85
2023-05-14T06:14:58.360Z,98655.77
2023-05-14T06:16:04.388Z,98654.77
2023-05-14T06:17:10.748Z,98650.02
2023-05-14T06:18:16.796Z,98653.10
2023-05-14T06:19:23.151Z,98653.11
2023-05-14T06:20:28.742Z,98657.23
2023-05-14T06:21:34.526Z,98655.05
2023-05-14T06:22:40.037Z,98655.98
2023-05-14T06:23:46.236Z,98654.20
2023-05-14T06:24:52.179Z,98655.77
2023-05-14T06:25:58.164Z,98653.87
2023-05-14T06:27:04.274Z,98654.14
2023-05-14T06:28:09.812Z,98655.25
2023-05-14T06:29:16.070Z,98660.55
2023-05-14T06:30:21.823Z,98661.98
2023-05-14T06:31:27.968Z,98661.52
2023-05-14T06:32:33.210Z,98664.35
2023-05-14T06:33:39.409Z,98663.67
2023-05-14T06:34:48.887Z,98664.40
2023-05-14T06:35:55.227Z,98662.29
2023-05-14T06:37:03.281Z,98664.27
2023-05-14T06:38:09.527Z,98665.77
2023-05-14T06:39:15.984Z,98666.55
2023-05-14T06:40:21.853Z,98664.98
2023-05-14T06:41:27.594Z,98664.27
2023-05-14T06:42:33.041Z,98666.58
2023-05-14T06:43:38.395Z,98669.90
2023-05-14T06:44:44.762Z,98666.52
2023-05-14T06:45:50.946Z,98665.04
2023-05-14T06:46:56.419Z,98663.15
2023-05-14T06:48:02.262Z,98666.02
2023-05-14T06:49:08.595Z,98664.85
2023-05-14T06:50:14.631Z,98658.64
2023-05-14T06:51:20.100Z,98659.25
2023-05-14T06:52:26.815Z,98658.80
2023-05-14T06:53:32.579Z,98654.38
2023-05-14T06:54:39.260Z,98654.87
2023-05-14T06:55:45.618Z,98651.20
2023-05-14T06:56:51.692Z,98650.31
2023-05-14T06:57:57.823Z,98651.26
2023-05-14T06:59:03.781Z,98651.02
2023-05-14T07:00:10.070Z,98652.85
2023-05-14T07:01:15.238Z,98654.84
2023-05-14T07:02:20.959Z,98653.90
2023-05-14T07:03:27.336Z,98656.59
2023-05-14T07:04:33.252Z,98655.32
2023-05-14T07:05:39.019Z,98657.53
2023-05-14T07:06:45.170Z,98656.92
2023-05-14T07:07:51.721Z,98657.08
2023-05-14T07:08:57.371Z,98659.71
2023-05-14T07:10:03.639Z,98659.61
2023-05-14T07:11:10.137Z,98663.98
2023-05-14T07:12:16.095Z,98660.91
2023-05-14T07:13:21.938Z,98659.09
2023-05-14T07:14:28.069Z,98659.73
2023-05-14T07:15:33.906Z,98660.20
2023-05-14T07:16:39.751Z,98663.99
2023-05-14T07:17:45.707Z,98664.73
2023-05-14T07:18:51.741Z,98659.30
2023-05-14T07:19:57.723Z,98661.18
2023-05-14T07:21:05.481Z,98659.23
2023-05-14T07:22:11.622Z,98663.92
2023-05-14T07:23:19.742Z,98661.77
2023-05-14T07:24:26.847Z,98663.13
2023-05-14T07:25:33.378Z,98664.09
2023-05-14T07:26:39.999Z,98666.30
2023-05-14T07:27:46.424Z,98669.39
2023-05-14T07:28:52.186Z,98669.38
2023-05-14T07:29:57.741Z,98669.86
2023-05-14T07:31:03.118Z,98665.04
2023-05-14T07:32:09.233Z,98666.70
2023-05-14T07:33:15.634Z,98665.86
2023-05-14T07:34:20.937Z,98665.80
2023-05-14T07:35:26.658Z,98662.64
2023-05-14T07:36:32.784Z,98661.95
2023-05-14T07:37:38.763Z,98663.06
2023-05-14T07:38:44.990Z,98662.11
2023-05-14T07:39:51.225Z,98664.36
2023-05-14T07:40:57.114Z,98664.23
2023-05-14T07:42:03.368Z,98663.29
2023-05-14T07:43:09.815Z,98666.26
2023-05-14T07:44:15.338Z,98669.02
2023-05-14T07:45:20.873Z,98670.23
2023-05-14T07:46:27.551Z,98669.09
2023-05-14T07:47:33.528Z,98666.66
2023-05-14T07:48:39.557Z,98666.58
2023-05-14T07:49:45.806Z,98667.66
2023-05-14T07:50:52.148Z,98670.45
2023-05-14T07:51:57.825Z,98669.84
2023-05-14T07:53:03.270Z,98666.77
2023-05-14T07:54:08.965Z,98668.57
2023-05-14T07:55:14.309Z,98671.14
2023-05-14T07:56:20.885Z,98671.23
2023-05-14T07:57:26.905Z,98671.98
2023-05-14T07:58:32.589Z,98669.84
2023-05-14T07:59:37.996Z,98670.36
2023-05-14T08:00:43.843Z,98672.55
2023-05-14T08:01:49.442Z,98670.79
2023-05-14T08:02:56.174Z,98665.38
2023-05-14T08:04:02.801Z,98665.12
2023-05-14T08:05:09.866Z,98665.25
2023-05-14T08:06:16.130Z,98665.16
2023-05-14T08:07:21.994Z,98668.25
2023-05-14T08:08:28.495Z,98672.79
2023-05-14T08:09:34.166Z,98669.38
2023-05-14T08:10:39.891Z,98670.00
2023-05-14T08:11:45.504Z,98669.83
2023-05-14T08:12:51.391Z,98671.39
2023-05-14T08:13:57.443Z,98670.66
2023-05-14T08:15:03.993Z,98674.12
2023-05-14T08:16:10.234Z,98671.36
2023-05-14T08:17:16.431Z,98673.41
2023-05-14T08:18:22.658Z,98674.52
2023-05-14T08:19:29.194Z,98674.12
2023-05-14T08:20:35.139Z,98672.06
2023-05-14T08:21:41.315Z,98672.23
2023-05-14T08:22:47.360Z,98673.73
2023-05-14T08:23:53.419Z,98675.73
2023-05-14T08:24:59.665Z,98672.84
2023-05-14T08:26:05.732Z,98673.10
2023-05-14T08:27:12.071Z,98672.14
2023-05-14T08:28:17.928Z,98675.17
2023-05-14T08:29:23.797Z,98671.63
2023-05-14T08:30:29.982Z,98672.02
2023-05-14T08:31:35.713Z,98669.02
2023-05-14T08:32:41.715Z,98667.67
2023-05-14T08:33:47.337Z,98663.73
2023-05-14T08:34:53.462Z,98665.96
2023-05-14T08:36:01.082Z,98666.45
2023-05-14T08:37:07.142Z,98668.20
2023-05-14T08:38:13.132Z,98665.42
2023-05-14T08:39:18.391Z,98666.36
2023-05-14T08:40:24.651Z,98664.08
2023-05-14T08:41:30.092Z,98665.08
2023-05-14T08:42:35.628Z,98661.66
2023-05-14T08:44:07.135Z,98659.27
2023-05-14T08:45:21.210Z,98658.04
2023-05-14T08:46:27.056Z,98659.83
2023-05-14T08:47:33.108Z,98656.80
2023-05-14T08:48:40.115Z,98657.41
2023-05-14T08:49:47.277Z,98654.54
2023-05-14T08:50:53.156Z,98655.64
2023-05-14T08:51:58.704Z,98657.35
2023-05-14T08:53:04.866Z,98657.81
2023-05-14T08:54:11.113Z,98658.16
2023-05-14T08:55:16.867Z,98657.89
2023-05-14T08:56:23.320Z,98658.52
2023-05-14T08:57:29.452Z,98658.25
2023-05-14T08:58:35.213Z,98658.48
2023-05-14T08:59:41.904Z,98660.90
2023-05-14T09:00:47.510Z,98661.75
2023-05-14T09:01:54.927Z,98665.92
2023-05-14T09:03:00.642Z,98665.96
2023-05-14T09:04:08.879Z,98664.03
2023-05-14T09:05:14.610Z,98664.70
2023-05-14T09:06:20.794Z,98664.74
2023-05-14T09:07:27.491Z,98665.32
2023-05-14T09:08:33.043Z,98661.15
2023-05-14T09:09:38.821Z,98664.15
2023-05-14T09:10:45.020Z,98664.23
2023-05-14T09:11:51.602Z,98665.53
2023-05-14T09:12:57.107Z,98661.13
2023-05-14T09:14:02.875Z,98658.71
2023-05-14T09:15:08.610Z,98656.91
2023-05-14T09:16:14.044Z,98655.58
2023-05-14T09:17:20.394Z,98657.53
2023-05-14T09:18:26.722Z,98656.75
2023-05-14T09:19:32.916Z,98657.40
2023-05-14T09:20:38.944Z,98659.19
2023-05-14T09:21:45.094Z,98659.61
2023-05-14T09:22:55.068Z,98660.41
2023-05-14T09:24:01.605Z,98659.95
2023-05-14T09:25:09.728Z,98658.30
2023-05-14T09:26:19.411Z,98658.16
2023-05-14T09:27:26.286Z,98657.31
2023-05-14T09:28:32.259Z,98656.20
2023-05-14T09:29:38.117Z,98661.45
2023-05-14T09:30:44.461Z,98663.79
2023-05-14T09:31:52.537Z,98666.17
2023-05-14T09:32:58.058Z,98667.31
2023-05-14T09:34:05.216Z,98667.58
2023-05-14T09:35:18.062Z,98668.70
2023-05-14T09:36:25.383Z,98667.45
2023-05-14T09:37:30.811Z,98666.98
2023-05-14T09:38:37.396Z,98665.87
2023-05-14T09:39:43.477Z,98663.84
2023-05-14T09:40:48.818Z,98663.34
2023-05-14T09:41:55.309Z,98662.11
2023-05-14T09:43:02.470Z,98662.77
2023-05-14T09:44:08.749Z,98659.14
2023-05-14T09:45:15.095Z,98658.75
2023-05-14T09:46:22.620Z,98661.30
2023-05-14T09:47:28.288Z,98659.64
2023-05-14T09:48:33.639Z,98665.04
2023-05-14T09:49:38.755Z,98665.21
2023-05-14T09:50:45.586Z,98667.63
2023-05-14T09:51:51.356Z,98667.30
2023-05-14T09:53:00.613Z,98664.98
2023-05-14T09:54:07.248Z,98666.30
2023-05-14T09:55:12.888Z,98665.91
2023-05-14T09:56:18.740Z,98665.23
2023-05-14T09:57:25.305Z,98664.60
2023-05-14T09:58:30.912Z,98664.77
2023-05-14T09:59:37.472Z,98666.59
2023-05-14T10:00:47.534Z,98664.31
2023-05-14T10:01:53.218Z,98665.98
2023-05-14T10:02:59.203Z,98664.70
2023-05-14T10:04:07.687Z,98664.96
2023-05-14T10:05:13.961Z,98662.52
2023-05-14T10:06:20.312Z,98663.55
2023-05-14T10:07:30.032Z,98665.58
2023-05-14T10:08:36.988Z,98666.55
2023-05-14T10:09:42.852Z,98664.05
2023-05-14T10:10:49.463Z,98664.14
2023-05-14T10:11:55.674Z,98663.10
2023-05-14T10:13:06.178Z,98665.66
2023-05-14T10:14:28.793Z,98665.05
2023-05-14T10:15:51.970Z,98667.92
2023-05-14T10:16:57.962Z,98668.20
2023-05-14T10:18:08.671Z,98669.41
2023-05-14T10:19:15.136Z,98668.87
2023-05-14T10:20:20.607Z,98669.05
2023-05-14T10:21:27.410Z,98670.48
2023-05-14T10:22:34.561Z,98666.60
2023-05-14T10:23:41.125Z,98666.70
2023-05-14T10:24:48.095Z,98665.36
2023-05-14T10:25:54.327Z,98663.53
2023-05-14T10:27:00.109Z,98661.02
2023-05-14T10:28:06.817Z,98657.14
2023-05-14T10:29:13.481Z,98655.86
2023-05-14T10:30:22.608Z,98652.77
2023-05-14T10:31:55.474Z,98654.23
2023-05-14T10:33:17.335Z,98654.47
2023-05-14T10:34:47.562Z,98656.69
2023-05-14T10:36:10.807Z,98660.47
2023-05-14T10:37:23.527Z,98660.30
2023-05-14T10:38:29.967Z,98657.83
2023-05-14T10:40:10.542Z,98661.87
2023-05-14T10:41:18.835Z,98660.05
2023-05-14T10:42:28.012Z,98658.48
2023-05-14T10:43:37.808Z,98660.86
2023-05-14T10:45:08.089Z,98656.03
2023-05-14T10:46:15.189Z,98660.08
2023-05-14T10:47:21.356Z,98655.19
2023-05-14T10:48:27.192Z,98654.83
2023-05-14T10:49:42.959Z,98655.63
2023-05-14T10:50:51.713Z,98652.79
2023-05-14T10:51:57.661Z,98652.44
2023-05-14T10:53:04.316Z,98649.91
2023-05-14T10:54:10.126Z,98654.29
2023-05-14T10:55:17.302Z,98654.70
2023-05-14T10:56:23.568Z,98652.73
2023-05-14T10:57:30.023Z,98655.87
2023-05-14T10:58:40.236Z,98657.79
2023-05-14T10:59:47.436Z,98656.88
2023-05-14T11:00:55.285Z,98654.36
2023-05-14T11:02:01.930Z,98650.25
2023-05-14T11:03:08.517Z,98649.47
2023-05-14T11:04:21.364Z,98648.84
2023-05-14T11:05:28.149Z,98648.77
2023-05-14T11:06:33.633Z,98652.30
2023-05-14T11:07:40.456Z,98652.06
2023-05-14T11:08:47.259Z,98650.79
2023-05-14T11:09:53.138Z,98654.15
2023-05-14T11:11:01.679Z,98654.25
2023-05-14T11:12:07.681Z,98655.52
2023-05-14T11:13:13.254Z,98658.05
2023-05-14T11:14:18.426Z,98659.91
2023-05-14T11:15:25.156Z,98656.70
2023-05-14T11:16:33.612Z,98662.35
2023-05-14T11:17:40.172Z,98660.96
2023-05-14T11:18:46.276Z,98659.63
2023-05-14T11:19:52.271Z,98660.72
2023-05-14T11:21:02.078Z,98661.61
2023-05-14T11:22:08.530Z,98658.44
2023-05-14T11:23:14.789Z,98661.85
2023-05-14T11:24:20.790Z,98663.21
2023-05-14T11:25:26.779Z,98664.02
2023-05-14T11:26:36.589Z,98668.37
2023-05-14T11:27:44.154Z,98667.52
2023-05-14T11:28:50.408Z,98664.81
2023-05-14T11:30:01.663Z,98663.02
2023-05-14T11:31:07.612Z,98664.37
2023-05-14T11:32:14.136Z,98664.62
2023-05-14T11:33:20.489Z,98662.89
2023-05-14T11:34:26.291Z,98662.48
2023-05-14T11:35:32.088Z,98661.61
2023-05-14T11:36:38.114Z,98662.50
2023-05-14T11:37:44.521Z,98664.65
2023-05-14T11:38:52.091Z,98665.23
2023-05-14T11:40:02.287Z,98665.80
2023-05-14T11:41:08.236Z,98669.13
2023-05-14T11:42:15.388Z,98666.52
2023-05-14T11:43:24.581Z,98665.73
2023-05-14T11:44:30.287Z,98667.72
2023-05-14T11:45:36.812Z,98666.77
2023-05-14T11:46:42.675Z,98668.77
2023-05-14T11:47:48.224Z,98668.48
2023-05-14T11:48:53.374Z,98669.27
2023-05-14T11:49:59.144Z,98669.30
2023-05-14T11:51:05.964Z,98668.84
2023-05-14T11:52:14.742Z,98668.28
2023-05-14T11:53:26.007Z,98666.78
2023-05-14T11:54:32.035Z,98666.23
2023-05-14T11:55:37.948Z,98666.16
2023-05-14T11:56:44.533Z,98663.70
2023-05-14T11:57:50.173Z,98662.38
2023-05-14T11:58:58.694Z,98659.92
2023-05-14T12:00:07.366Z,98660.40
2023-05-14T12:01:14.509Z,98659.78
2023-05-14T12:02:20.219Z,98659.17
2023-05-14T12:03:30.321Z,98657.50
2023-05-14T12:04:36.408Z,98657.99
2023-05-14T12:05:46.029Z,98655.39
2023-05-14T12:06:51.795Z,98654.50
2023-05-14T12:07:57.330Z,98652.45
2023-05-14T12:09:03.704Z,98654.21
2023-05-14T12:10:10.369Z,98653.33
2023-05-14T12:11:16.086Z,98657.20
2023-05-14T12:12:23.401Z,98655.64
2023-05-14T12:13:30.417Z,98656.29
2023-05-14T12:14:42.612Z,98659.77
2023-05-14T12:15:57.004Z,98662.65
2023-05-14T12:17:03.539Z,98663.28
2023-05-14T12:18:22.936Z,98661.14
2023-05-14T12:19:31.233Z,98661.30
2023-05-14T12:20:36.747Z,98661.47
2023-05-14T12:21:42.768Z,98659.09
2023-05-14T12:22:48.228Z,98659.73
2023-05-14T12:24:02.057Z,98663.48
2023-05-14T12:25:14.000Z,98661.92
2023-05-14T12:26:19.378Z,98667.95
2023-05-14T12:27:27.077Z,98665.41
2023-05-14T12:28:33.802Z,98665.73
2023-05-14T12:29:41.115Z,98666.67
2023-05-14T12:30:50.524Z,98665.96
2023-05-14T12:31:59.666Z,98668.60
2023-05-14T12:33:05.576Z,98670.56
2023-05-14T12:34:12.315Z,98669.94
2023-05-14T12:35:18.735Z,98672.83
2023-05-14T12:36:24.779Z,98674.70
2023-05-14T12:37:31.262Z,98672.52
2023-05-14T12:38:38.302Z,98672.48
2023-05-14T12:39:43.577Z,98675.57
2023-05-14T12:40:49.168Z,98674.46
2023-05-14T12:41:54.714Z,98674.72
2023-05-14T12:43:00.356Z,98676.25
2023-05-14T12:44:06.907Z,98677.23
2023-05-14T12:45:13.562Z,98677.45
2023-05-14T12:46:19.813Z,98677.45
2023-05-14T12:47:25.373Z,98678.19
2023-05-14T12:48:31.370Z,98674.77
2023-05-14T12:49:37.828Z,98675.01
2023-05-14T12:50:44.438Z,98676.83
2023-05-14T12:51:52.684Z,98672.55
2023-05-14T12:53:02.660Z,98676.86
2023-05-14T12:54:08.920Z,98678.13
2023-05-14T12:55:14.957Z,98680.58
2023-05-14T12:56:20.694Z,98680.73
2023-05-14T12:57:28.567Z,98683.77
2023-05-14T12:58:34.276Z,98680.05
2023-05-14T12:59:39.802Z,98683.30
2023-05-14T13:00:45.905Z,98684.90
2023-05-14T13:01:51.846Z,98683.67
2023-05-14T13:02:57.695Z,98683.98
2023-05-14T13:04:04.040Z,98683.27
2023-05-14T13:05:10.314Z,98685.36
2023-05-14T13:06:16.749Z,98692.17
2023-05-14T13:07:22.232Z,98691.87
2023-05-14T13:08:27.948Z,98692.81